WetterOnline ( https://www.wetteronline.de )

Wetter aktuell Bad Schmiedeberg

Aktuelles Wetter: Wittenberg (106m)

6-stündlich | Neueste Meldungen
Ortszeit Temperatur Wetter
Do, 23.05. 2:00 15.1° C bedeckt
Mi, 22.05. 20:00 15.6° C bedeckt
Mi, 22.05. 14:00 19.0° C bewölkt
Mi, 22.05. 8:00 16.8° C bedeckt
Mi, 22.05. 2:00 17.0° C bewölkt
Di, 21.05. 20:00 22.2° C bewölkt
Di, 21.05. 14:00 25.1° C bewölkt
Di, 21.05. 8:00 16.8° C leicht bewölkt
Ortszeit Temperatur Wetter
Do, 23.05. 4:30 14.6° C bedeckt
Do, 23.05. 4:20 14.6° C bedeckt
Do, 23.05. 4:10 14.7° C bedeckt
Do, 23.05. 4:00 14.8° C bedeckt
Do, 23.05. 3:50 14.8° C bedeckt
Do, 23.05. 3:40 14.7° C bedeckt
Do, 23.05. 3:30 14.7° C bedeckt
Do, 23.05. 3:00 14.8° C bedeckt
Do, 23.05. 2:30 14.9° C bedeckt
Do, 23.05. 2:00 15.1° C bedeckt
Do, 23.05. 1:30 15.1° C bedeckt
Ortszeit Relative Feuchte Sichtweite
Do, 23.05. 2:00 85% 19 km
Mi, 22.05. 20:00 80% 40 km
Mi, 22.05. 14:00 83% 40 km
Mi, 22.05. 8:00 90% 24 km
Mi, 22.05. 2:00 90% 35 km
Di, 21.05. 20:00 55% >70 km
Di, 21.05. 14:00 45% >70 km
Di, 21.05. 8:00 78% 45 km
Ortszeit Relative Feuchte Sichtweite
Do, 23.05. 4:30 90% 11 km
Do, 23.05. 4:20 90% -
Do, 23.05. 4:10 89% -
Do, 23.05. 4:00 89% 9 km
Do, 23.05. 3:50 89% -
Do, 23.05. 3:40 91% -
Do, 23.05. 3:30 90% 13 km
Do, 23.05. 3:00 89% 8 km
Do, 23.05. 2:30 87% 12 km
Do, 23.05. 2:00 85% 19 km
Do, 23.05. 1:30 85% 19 km
Ortszeit Niederschlagsmenge Niederschlagsart
Do, 23.05. 2:00 0.0 l/m2 in 6 Std. -
Mi, 22.05. 20:00 0.1 l/m2 in 12 Std. Regen
Mi, 22.05. 14:00 0.0 l/m2 in 6 Std. -
Mi, 22.05. 8:00 3 l/m2 in 12 Std. Regen
Mi, 22.05. 2:00 2 l/m2 in 6 Std. Regen
Di, 21.05. 20:00 0.1 l/m2 in 12 Std. Regen
Di, 21.05. 14:00 0.0 l/m2 in 6 Std. -
Di, 21.05. 8:00 0.0 l/m2 in 12 Std. -
Ortszeit Niederschlagsmenge Niederschlagsart
Do, 23.05. 4:30 0.0 l/m2 in 30 Min -
Do, 23.05. 4:20 keine Meldung -
Do, 23.05. 4:10 keine Meldung -
Do, 23.05. 4:00 0.0 l/m2 in 1 Std. -
Do, 23.05. 3:50 keine Meldung -
Do, 23.05. 3:40 keine Meldung -
Do, 23.05. 3:30 0.0 l/m2 in 30 Min -
Do, 23.05. 3:00 <0.05 l/m2 in 1 Std. Regen
Do, 23.05. 2:30 <0.05 l/m2 in 30 Min Schneeregen
Do, 23.05. 2:00 0.0 l/m2 in 1 Std. -
Do, 23.05. 1:30 0.0 l/m2 in 30 Min -
Ortszeit Stärke Spitze Richtung
km/h Bft. km/h Grad Sektor
Do, 23.05. 2:00 9 2 28 270° W
Mi, 22.05. 20:00 11 2 43 290° W
Mi, 22.05. 14:00 14 3 25 230° SW
Mi, 22.05. 8:00 4 1 25 60° NO
Mi, 22.05. 2:00 13 3 30 60° NO
Di, 21.05. 20:00 7 2 47 120° SO
Di, 21.05. 14:00 14 3 36 80° O
Di, 21.05. 8:00 11 2 22 50° NO
Ortszeit Stärke Spitze Richtung
km/h Bft. km/h Grad Sektor
Do, 23.05. 4:30 7 2 18 240° SW
Do, 23.05. 4:20 7 2 - 240° SW
Do, 23.05. 4:10 9 2 - 260° W
Do, 23.05. 4:00 7 2 14 260° W
Do, 23.05. 3:50 7 2 - 260° W
Do, 23.05. 3:40 6 1 - 250° W
Do, 23.05. 3:30 9 2 15 230° SW
Do, 23.05. 3:00 7 2 18 240° SW
Do, 23.05. 2:30 7 2 18 260° W
Do, 23.05. 2:00 9 2 17 270° W
Do, 23.05. 1:30 9 2 17 270° W
Ortszeit Untergrenze Bedeckung Gattung
total tief tief mittel hoch
Do, 23.05. 2:00 2400 m 8/8 8/8 - - -
Mi, 22.05. 20:00 1380 m 8/8 8/8 - - -
Mi, 22.05. 14:00 480 m 7/8 7/8 - - -
Mi, 22.05. 8:00 2100 m 8/8 8/8 - - -
Mi, 22.05. 2:00 1500 m 8/8 4/8 - - -
Di, 21.05. 20:00 2100 m 8/8 4/8 - - -
Di, 21.05. 14:00 6600 m 7/8 7/8 - - -
Di, 21.05. 8:00 9000 m 7/8 0/8 - - -
Ortszeit Bedeckungsgrad in Achtel und Wolkenuntergrenze
Do, 23.05. 4:30 8(2700m)
Do, 23.05. 4:20 8(2700m)
Do, 23.05. 4:10 8
Do, 23.05. 4:00 5(1440m) 8(2700m)
Do, 23.05. 3:50 5(1440m) 8(2700m)
Do, 23.05. 3:40 8
Do, 23.05. 3:30 4(1320m) 8(2700m) 8(3600m)
Do, 23.05. 3:00 2(690m) 8(2400m) 8(3600m)
Do, 23.05. 2:30 1(1440m) 8(2400m) 8(3000m)
Do, 23.05. 2:00 8(2400m)
Do, 23.05. 1:30 8(2100m)
Ortszeit Luftdruck NN (hPa) Tendenz (hPa in 3 Std.)
Do, 23.05. 2:00 1012 + 0,1
Mi, 22.05. 20:00 1010 + 1,3
Mi, 22.05. 14:00 1007 + 1,2
Mi, 22.05. 8:00 1005 + 0,7
Mi, 22.05. 2:00 1006 - 0,4
Di, 21.05. 20:00 1007 + 0,2
Di, 21.05. 14:00 1009 - 1,7
Di, 21.05. 8:00 1011 - 0,4
Ortszeit Luftdruck NN (hPa) Tendenz (hPa in 3 Std.)
Do, 23.05. 4:30 1012 + 0,8
Do, 23.05. 4:20 1012 keine Meldung
Do, 23.05. 4:10 1012 keine Meldung
Do, 23.05. 4:00 1012 + 0,8
Do, 23.05. 3:50 1012 keine Meldung
Do, 23.05. 3:40 1012 keine Meldung
Do, 23.05. 3:30 1012 + 0,7
Do, 23.05. 3:00 1012 + 0,3
Do, 23.05. 2:30 1012 + 0,2
Do, 23.05. 2:00 1012 + 0,1
Do, 23.05. 1:30 1012 + 0,3
Ortszeit Schneehöhe (cm)
Do, 23.05. 2:00 0
Mi, 22.05. 20:00 0
Mi, 22.05. 14:00 0
Mi, 22.05. 8:00 0
Mi, 22.05. 2:00 0
Di, 21.05. 20:00 0
Di, 21.05. 14:00 0
Di, 21.05. 8:00 0
Ortszeit Schneehöhe (cm)
Do, 23.05. 4:30 0
Do, 23.05. 4:20 0
Do, 23.05. 4:10 -
Do, 23.05. 4:00 0
Do, 23.05. 3:50 0
Do, 23.05. 3:40 -
Do, 23.05. 3:30 0
Do, 23.05. 3:00 0
Do, 23.05. 2:30 0
Do, 23.05. 2:00 0
Do, 23.05. 1:30 0
Link zu dieser Seite / Seite empfehlen

Das Wetter in ...